createdAt,value
2022-10-21T00:00:27.613Z,4.15
2022-10-21T00:05:53.742Z,4.10
2022-10-21T00:11:03.752Z,4.08
2022-10-21T00:16:17.442Z,4.01
2022-10-21T00:21:32.229Z,3.95
2022-10-21T00:26:46.685Z,3.87
2022-10-21T00:31:54.772Z,3.82
2022-10-21T00:36:58.449Z,3.79
2022-10-21T00:42:01.970Z,3.79
2022-10-21T00:47:08.398Z,3.81
2022-10-21T00:52:20.872Z,3.85
2022-10-21T00:57:25.870Z,3.88
2022-10-21T01:02:29.626Z,3.94
2022-10-21T01:07:36.359Z,3.99
2022-10-21T01:13:03.860Z,4.07
2022-10-21T01:18:12.761Z,4.21
2022-10-21T01:23:28.237Z,4.38
2022-10-21T01:28:34.551Z,4.51
2022-10-21T01:34:04.094Z,4.60
2022-10-21T01:39:31.375Z,4.67
2022-10-21T01:44:40.395Z,4.73
2022-10-21T01:49:58.214Z,4.79
2022-10-21T01:55:06.505Z,4.87
2022-10-21T02:00:10.846Z,4.96
2022-10-21T02:05:20.015Z,5.02
2022-10-21T02:10:26.880Z,5.05
2022-10-21T02:15:30.839Z,5.06
2022-10-21T02:20:40.598Z,5.08
2022-10-21T02:25:46.379Z,5.09
2022-10-21T02:31:21.757Z,5.13
2022-10-21T02:36:28.122Z,5.16
2022-10-21T02:41:32.574Z,5.19
2022-10-21T02:46:40.988Z,5.22
2022-10-21T02:51:45.265Z,5.25
2022-10-21T02:56:48.803Z,5.27
2022-10-21T03:01:52.252Z,5.30
2022-10-21T03:06:55.399Z,5.33
2022-10-21T03:11:58.722Z,5.36
2022-10-21T03:17:01.987Z,5.39
2022-10-21T03:22:05.274Z,5.44
2022-10-21T03:27:08.572Z,5.48
2022-10-21T03:32:12.073Z,5.51
2022-10-21T03:37:15.521Z,5.54
2022-10-21T03:42:18.806Z,5.55
2022-10-21T03:47:22.191Z,5.54
2022-10-21T03:52:25.580Z,5.53
2022-10-21T03:57:28.848Z,5.52
2022-10-21T04:02:32.103Z,5.50
2022-10-21T04:07:35.320Z,5.54
2022-10-21T04:12:38.993Z,5.59
2022-10-21T04:17:42.571Z,5.65
2022-10-21T04:22:45.754Z,5.74
2022-10-21T04:27:49.035Z,5.84
2022-10-21T04:32:52.345Z,5.93
2022-10-21T04:37:55.543Z,6.04
2022-10-21T04:42:58.811Z,6.13
2022-10-21T04:48:02.123Z,6.23
2022-10-21T04:53:05.458Z,6.34
2022-10-21T04:58:08.709Z,6.46
2022-10-21T05:03:12.050Z,6.61
2022-10-21T05:08:15.338Z,6.76
2022-10-21T05:13:18.732Z,6.90
2022-10-21T05:18:22.149Z,7.04
2022-10-21T05:23:26.327Z,7.18
2022-10-21T05:28:32.717Z,7.36
2022-10-21T05:33:39.422Z,7.53
2022-10-21T05:38:48.557Z,7.69
2022-10-21T05:43:55.083Z,7.81
2022-10-21T05:48:58.561Z,7.91
2022-10-21T05:54:04.089Z,8.01
2022-10-21T05:59:10.086Z,8.09
2022-10-21T06:04:13.749Z,8.15
2022-10-21T06:09:17.891Z,8.19
2022-10-21T06:14:21.627Z,8.23
2022-10-21T06:19:24.894Z,8.25
2022-10-21T06:24:28.354Z,8.30
2022-10-21T06:29:36.406Z,8.32
2022-10-21T06:34:40.428Z,8.31
2022-10-21T06:39:43.922Z,8.30
2022-10-21T06:44:47.200Z,8.33
2022-10-21T06:49:50.478Z,8.39
2022-10-21T06:54:53.803Z,8.49
2022-10-21T06:59:59.556Z,8.63
2022-10-21T07:05:02.980Z,8.82
2022-10-21T07:10:06.474Z,8.99
2022-10-21T07:15:10.406Z,9.17
2022-10-21T07:20:16.291Z,9.35
2022-10-21T07:25:20.186Z,9.56
2022-10-21T07:30:23.990Z,9.79
2022-10-21T07:35:27.250Z,9.99
2022-10-21T07:40:30.737Z,10.16
2022-10-21T07:45:35.068Z,10.37
2022-10-21T07:50:38.290Z,10.62
2022-10-21T07:55:41.657Z,10.86
2022-10-21T08:00:45.513Z,11.07
2022-10-21T08:05:49.049Z,11.29
2022-10-21T08:10:53.703Z,11.50
2022-10-21T08:15:57.155Z,11.69
2022-10-21T08:21:03.565Z,11.91
2022-10-21T08:26:17.375Z,12.13
2022-10-21T08:31:22.368Z,12.39
2022-10-21T08:36:26.782Z,12.60
2022-10-21T08:41:30.091Z,12.73
2022-10-21T08:47:20.018Z,12.88
2022-10-21T08:52:50.402Z,13.18
2022-10-21T08:57:57.828Z,13.53
2022-10-21T09:03:32.507Z,13.63
2022-10-21T09:08:43.456Z,13.75
2022-10-21T09:14:44.073Z,13.81
2022-10-21T09:19:49.665Z,13.95
2022-10-21T09:24:59.234Z,14.06
2022-10-21T09:30:18.903Z,14.19
2022-10-21T09:35:31.202Z,14.14
2022-10-21T09:40:34.670Z,14.17
2022-10-21T09:45:43.924Z,14.34
2022-10-21T09:50:50.794Z,14.62
2022-10-21T09:56:20.881Z,14.92
2022-10-21T10:01:24.361Z,15.15
2022-10-21T10:06:35.866Z,15.35
2022-10-21T10:11:56.369Z,15.70
2022-10-21T10:17:27.792Z,16.12
2022-10-21T10:22:41.383Z,16.57
2022-10-21T10:28:00.404Z,17.00
2022-10-21T10:33:16.210Z,17.31
2022-10-21T10:38:38.659Z,17.48
2022-10-21T10:43:56.993Z,17.41
2022-10-21T10:49:19.796Z,17.34
2022-10-21T10:54:28.550Z,17.42
2022-10-21T10:59:47.806Z,17.52
2022-10-21T11:05:26.145Z,17.58
2022-10-21T11:10:32.447Z,17.85
2022-10-21T11:15:41.962Z,18.06
2022-10-21T11:21:14.305Z,18.24
2022-10-21T11:26:34.942Z,18.13
2022-10-21T11:32:06.645Z,17.83
2022-10-21T11:37:23.083Z,17.67
2022-10-21T11:42:37.824Z,17.52
2022-10-21T11:48:06.726Z,17.37
2022-10-21T11:53:32.256Z,17.16
2022-10-21T11:59:01.928Z,17.08
2022-10-21T12:04:36.728Z,17.11
2022-10-21T12:10:21.026Z,17.30
2022-10-21T12:15:47.422Z,17.39
2022-10-21T12:20:54.463Z,17.51
2022-10-21T12:26:24.800Z,17.67
2022-10-21T12:31:58.270Z,17.70
2022-10-21T12:37:04.385Z,17.45
2022-10-21T12:42:20.384Z,17.17
2022-10-21T12:47:43.992Z,16.85
2022-10-21T12:53:09.252Z,16.75
2022-10-21T12:58:32.005Z,16.82
2022-10-21T13:03:45.930Z,16.96
2022-10-21T13:08:54.695Z,17.16
2022-10-21T13:14:23.096Z,17.16
2022-10-21T13:19:34.490Z,17.00
2022-10-21T13:24:40.459Z,16.74
2022-10-21T13:29:49.040Z,16.44
2022-10-21T13:35:20.783Z,16.13
2022-10-21T13:41:07.530Z,15.84
2022-10-21T13:46:17.837Z,15.62
2022-10-21T13:51:30.337Z,15.48
2022-10-21T13:56:36.012Z,15.36
2022-10-21T14:01:51.455Z,15.20
2022-10-21T14:07:01.559Z,15.05
2022-10-21T14:12:10.357Z,14.95
2022-10-21T14:17:27.226Z,14.86
2022-10-21T14:22:33.515Z,14.75
2022-10-21T14:27:37.270Z,14.63
2022-10-21T14:32:41.558Z,14.53
2022-10-21T14:37:48.833Z,14.41
2022-10-21T14:42:54.319Z,14.31
2022-10-21T14:48:27.451Z,14.22
2022-10-21T14:53:51.284Z,14.13
2022-10-21T14:59:26.118Z,14.02
2022-10-21T15:04:51.850Z,13.91
2022-10-21T15:10:30.547Z,13.80
2022-10-21T15:15:54.549Z,13.70
2022-10-21T15:21:01.839Z,13.59
2022-10-21T15:26:42.753Z,13.50
2022-10-21T15:31:55.452Z,13.37
2022-10-21T15:37:15.622Z,13.26
2022-10-21T15:42:38.356Z,13.13
2022-10-21T15:47:56.064Z,12.99
2022-10-21T15:53:29.450Z,12.83
2022-10-21T15:58:54.091Z,12.70
2022-10-21T16:04:32.298Z,12.62
2022-10-21T16:09:51.164Z,12.49
2022-10-21T16:15:20.517Z,12.31
2022-10-21T16:20:29.680Z,12.15
2022-10-21T16:25:46.589Z,11.99
2022-10-21T16:31:06.774Z,11.86
2022-10-21T16:36:31.502Z,11.73
2022-10-21T16:41:49.479Z,11.63
2022-10-21T16:46:59.725Z,11.54
2022-10-21T16:52:07.582Z,11.49
2022-10-21T16:57:17.777Z,11.43
2022-10-21T17:02:21.575Z,11.38
2022-10-21T17:07:40.718Z,11.32
2022-10-21T17:12:48.170Z,11.24
2022-10-21T17:17:57.511Z,11.18
2022-10-21T17:23:02.536Z,11.09
2022-10-21T17:28:09.862Z,11.01
2022-10-21T17:33:17.376Z,10.94
2022-10-21T17:38:22.521Z,10.89
2022-10-21T17:43:27.451Z,10.84
2022-10-21T17:48:40.469Z,10.82
2022-10-21T17:54:01.454Z,10.78
2022-10-21T17:59:38.065Z,10.75
2022-10-21T18:05:04.605Z,10.71
2022-10-21T18:10:20.544Z,10.70
2022-10-21T18:15:38.394Z,10.69
2022-10-21T18:20:59.630Z,10.68
2022-10-21T18:27:05.863Z,10.68
2022-10-21T18:32:52.416Z,10.67
2022-10-21T18:38:08.332Z,10.66
2022-10-21T18:43:31.610Z,10.67
2022-10-21T18:48:59.768Z,10.64
2022-10-21T18:54:47.218Z,10.61
2022-10-21T19:00:13.773Z,10.62
2022-10-21T19:05:33.949Z,10.59
2022-10-21T19:11:32.215Z,10.58
2022-10-21T19:16:48.249Z,10.57
2022-10-21T19:22:01.643Z,10.56
2022-10-21T19:27:09.794Z,10.52
2022-10-21T19:32:21.954Z,10.50
2022-10-21T19:37:32.115Z,10.50
2022-10-21T19:42:43.442Z,10.50
2022-10-21T19:47:57.213Z,10.50
2022-10-21T19:53:05.576Z,10.50
2022-10-21T19:58:12.332Z,10.50
2022-10-21T20:03:17.650Z,10.52
2022-10-21T20:08:34.976Z,10.55
2022-10-21T20:13:53.701Z,10.59
2022-10-21T20:19:08.348Z,10.62
2022-10-21T20:24:24.773Z,10.65
2022-10-21T20:29:38.518Z,10.67
2022-10-21T20:34:52.161Z,10.69
2022-10-21T20:40:06.935Z,10.69
2022-10-21T20:45:10.994Z,10.70
2022-10-21T20:50:34.756Z,10.71
2022-10-21T20:55:38.768Z,10.71
2022-10-21T21:00:47.263Z,10.72
2022-10-21T21:06:02.655Z,10.72
2022-10-21T21:11:13.307Z,10.71
2022-10-21T21:16:19.819Z,10.72
2022-10-21T21:21:27.269Z,10.73
2022-10-21T21:26:37.652Z,10.72
2022-10-21T21:31:41.743Z,10.70
2022-10-21T21:36:46.247Z,10.66
2022-10-21T21:41:51.981Z,10.59
2022-10-21T21:46:59.030Z,10.50
2022-10-21T21:52:12.718Z,10.42
2022-10-21T21:57:34.357Z,10.37
2022-10-21T22:02:37.703Z,10.35
2022-10-21T22:07:41.228Z,10.34
2022-10-21T22:12:47.720Z,10.31
2022-10-21T22:17:52.103Z,10.26
2022-10-21T22:22:55.742Z,10.19
2022-10-21T22:27:59.082Z,10.11
2022-10-21T22:33:02.362Z,10.01
2022-10-21T22:38:06.102Z,9.88
2022-10-21T22:43:09.281Z,9.72
2022-10-21T22:48:12.541Z,9.56
2022-10-21T22:53:16.247Z,9.41
2022-10-21T22:58:21.567Z,9.33
2022-10-21T23:03:24.819Z,9.27
2022-10-21T23:08:28.216Z,9.26
2022-10-21T23:13:31.471Z,9.29
2022-10-21T23:18:34.721Z,9.36
2022-10-21T23:23:38.590Z,9.44
2022-10-21T23:28:43.034Z,9.54
2022-10-21T23:33:49.326Z,9.60
2022-10-21T23:38:55.767Z,9.67
2022-10-21T23:43:59.167Z,9.69
2022-10-21T23:49:02.295Z,9.69
2022-10-21T23:54:05.638Z,9.67
2022-10-21T23:59:08.866Z,9.61
